EDHK/KEL METAR and TAF weather

Enter ICAO airport designator
Station Type Date Time Source
EDHK METAR 2018/12/10 16:50 UTC NOAA

EDHK 101650Z 29014KT 9999 SCT025 05/02 Q1008


Station Type Date Time Source
EDHK Decoded METAR 2018/12/10 16:50 UTC NOAA

Kiel / Holtenau Civilian, Germany (EDHK) 54-23N 010-10E
Dec 10, 2018 - 11:50 AM EST / 2018.12.10 1650 UTC
Wind: from the WNW (290 degrees) at 16 MPH (14 KT):0
Visibility: greater than 7 mile(s):0
Sky conditions: partly cloudy
Temperature: 41 F (5 C)
Dew Point: 35 F (2 C)
Relative Humidity: 80%
Pressure (altimeter): 29.77 in. Hg (1008 hPa)
ob: EDHK 101650Z 29014KT 9999 SCT025 05/02 Q1008
cycle: 17

Station Type Date Time Source
EDHK TAF 2013/08/11 06:39 UTC NOAA

TAF EDHK 110633Z 1106/1118 24005KT 9999 SCT030
BECMG 1106/1109 25010KT
TEMPO 1106/1118 27015G25KT 4500 SHRA BKN012CB


Example: see airport list